AirNav   Air Wisconsin Up To $57,000 Bonus
 
 1613 users online  

64MI Ti Heliport
Utica, Michigan, USA

GOING TO UTICA?


FAA INFORMATION EFFECTIVE 15 JULY 2021

Location

FAA Identifier: 64MI
Lat/Long: 42-39-53.0000N 083-00-44.0000W
42-39.883333N 083-00.733333W
42.6647222,-83.0122222
(estimated)
Elevation: 680 ft. / 207 m (estimated)
Variation: 07W (1995)
From city: 2 miles NE of UTICA, MI
Time zone: UTC -4 (UTC -5 during Standard Time)
Zip code: 48315

Heliport Operations

Heliport use: Private use. Permission required prior to landing
Activation date: 08/1998
Control tower: no
ARTCC: CLEVELAND CENTER
FSS: LANSING FLIGHT SERVICE STATION
Attendance: MON-FRI 0700-1700
Segmented circle: no

Heliport Communications

WX AWOS-3 at VLL (10 nm SW): 119.475 (248-288-4649)
WX ASOS at DET (15 nm S): PHONE 313-371-9696
WX ASOS at PTK (18 nm W): 125.025 (248-886-8551)

Nearby radio navigation aids

VOR radial/distance  VOR name  Freq  Var
SVMr062/30.0SALEM VORTAC114.3003W
DXOr036/31.3DETROIT VOR/DME113.4006W
FNTr125/37.1FLINT VORTAC116.9006W

 
NDB name  Hdg/Dist  Freq  Var  ID
GROSSE ILE017/34.441907WRYS .-. -.-- ...

Heliport Services

Runway Information

Helipad H1

Dimensions: 12 x 12 ft. / 4 x 4 m
Surface: concrete
ROOFTOP.
Traffic pattern: leftleft

Heliport Ownership and Management from official FAA records

Ownership: Privately-owned
Owner: TI-COATING INC.
50500 CORPORATE DRIVE
UTICA, MI 48315
Phone (586) 726-1900
Manager: WILLIAM C ZICHICHI
50500 CORPORATE DRIVE
UTICA, MI 48315
Phone (586) 726-1900

Heliport Operational Statistics

Aircraft based on the field: 1
Helicopters: 1
    

Additional Remarks

A52-H1 12 FT POLE 20 FT N; 33 FT POWERLINE 100 FT E; 3 FT POWERLINE 200 FT S.
FOR CD CTC CLEVELAND ARTCC AT 440-774-0490.

Instrument Procedures

There are no published instrument procedures at 64MI.

Some nearby airports with instrument procedures:

57D - Ray Community Airport (7 nm NE)
D98 - Romeo State Airport (8 nm N)
KMTC - Selfridge Air National Guard Base (8 nm E)
KVLL - Oakland/Troy Airport (10 nm SW)
KDET - Coleman A Young Municipal Airport (15 nm S)
KPTK - Oakland County International Airport (18 nm W)
 
Loc | Ops | Rwys | IFR | FBO | Links
Com | Nav | Svcs | Stats | Notes
Area around 64MI (Ti Heliport)
 
Road maps at: MapQuest Bing Google
 
Aerial photo
No photo
 
Sectional chart

 
Airport distance calculator
Flying to Ti Heliport? Find the distance to fly.

From to 64MI

Sunrise and sunset
Times for 26-Jul-2021
 Local
(UTC-4)
 Zulu
(UTC)
Morning civil twilight05:4609:46
Sunrise06:1910:19
Sunset20:5800:58
Evening civil twilight21:3101:31

Current date and time
Zulu (UTC)  26-Jul-2021 20:08:17
Local (UTC-4)  26-Jul-2021 16:08:17
 
METAR
KMTC 
9nm E 
261956Z 32009KT 10SM FEW080 31/14 A2998 RMK AO2A SLP153 T03100141
KVLL 
10nm SW 
261955Z AUTO 32007KT 10SM SCT080 32/10 A3002 RMK AO2 T03200104
KDET 
16nm S 
261953Z 33007G15KT 10SM SCT085 33/12 A2999 RMK AO2 SLPNO T03280117
KPTK 
18nm W 
261953Z 31011KT 10SM FEW060 FEW250 31/12 A2999 RMK AO2 SLP149 T03060117
TAF
KMTC 
9nm E 
261700Z 2617/2723 30010G15KT 9999 SKC QNH2996INS BECMG 2623/2624 VRB06KT 9999 SKC QNH2996INS BECMG 2711/2712 VRB06KT 9999 FEW110 BKN120 QNH2996INS BECMG 2716/2717 27010G15KT 9999 FEW095 BKN130 OVC180 510052 QNH2992INS TX30/2620Z TN20/2709Z
KDET 
16nm S 
261130Z 2612/2712 31003KT P6SM SKC FM261600 30008KT P6SM FEW070 FM270000 20003KT P6SM SKC FM270600 26003KT P6SM SCT100
KPTK 
18nm W 
261130Z 2612/2712 30003KT P6SM SKC FM261600 30008KT P6SM FEW070 FM270000 20003KT P6SM SKC FM270600 VRB03KT P6SM SCT100
NOTAMs
Click for the latest NOTAMs
NOTAMs are issued by the DoD/FAA and will open in a separate window not controlled by AirNav.

 

 
 

Would you like to see your business listed on this page?

 If your business provides an interesting product or service to pilots, flight crews, aircraft, or users of the Ti Heliport, you should consider listing it here.  To start the listing process, click on the button below
 
Add a business
 

Other Pages about Ti Heliport

Update a link
 
Copyright © AirNav, LLC. All rights reserved. Privacy Policy  Contact